Time;durP1;ratioP1;P1;durP2;ratioP2;P2;SDS_P1;SDS_P2;PMS_P1;PMS_P2;Temp;Humidity;BMP_temperature;BMP_pressure;BME280_temperature;BME280_humidity;BME280_pressure;Samples;Min_cycle;Max_cycle;Signal;HPM_P1;HPM_P2
2021/04/06 00:00:00;;;;;;;7.13;2.28;;;25.10;99.90;;;;;;5065917;28;20791;-80
2021/04/06 00:02:29;;;;;;;5.53;1.93;;;24.90;99.90;;;;;;5035943;28;20457;-80
2021/04/06 00:05:00;;;;;;;7.80;2.10;;;25.20;99.90;;;;;;5045136;28;20403;-80
2021/04/06 00:07:28;;;;;;;4.75;1.73;;;26.00;99.90;;;;;;5035438;28;20393;-80
2021/04/06 00:10:00;;;;;;;6.90;2.10;;;27.70;99.90;;;;;;5047650;28;20419;-81
2021/04/06 00:12:28;;;;;;;5.93;1.33;;;28.80;99.90;;;;;;5049037;28;20389;-81
2021/04/06 00:14:58;;;;;;;7.90;1.57;;;29.30;99.90;;;;;;5037458;28;20429;-80
2021/04/06 00:17:26;;;;;;;5.30;1.50;;;29.40;99.50;;;;;;5059370;28;20518;-81
2021/04/06 00:19:56;;;;;;;7.72;1.30;;;29.40;97.90;;;;;;5037050;28;21083;-81
2021/04/06 00:22:27;;;;;;;5.40;1.20;;;29.10;99.00;;;;;;5041309;28;20404;-81
2021/04/06 00:24:56;;;;;;;7.97;1.77;;;28.70;99.20;;;;;;5045318;28;20491;-81
2021/04/06 00:27:28;;;;;;;6.03;1.70;;;27.30;99.90;;;;;;5038385;28;20395;-80
2021/04/06 00:30:03;;;;;;;7.35;1.20;;;26.20;99.90;;;;;;5040299;28;20405;-80
2021/04/06 00:32:31;;;;;;;6.68;1.50;;;25.10;99.90;;;;;;5035210;28;20398;-81
2021/04/06 00:35:01;;;;;;;6.13;1.33;;;24.30;99.90;;;;;;5045008;28;21206;-81
2021/04/06 00:37:31;;;;;;;7.82;1.58;;;24.00;99.90;;;;;;5050870;28;20666;-80
2021/04/06 00:40:09;;;;;;;6.63;1.70;;;23.80;99.90;;;;;;5047836;28;20753;-80
2021/04/06 00:42:38;;;;;;;7.18;1.70;;;24.80;99.90;;;;;;5033418;28;20903;-80
2021/04/06 00:45:09;;;;;;;6.33;1.40;;;26.20;99.90;;;;;;5050569;28;20415;-80
2021/04/06 00:47:37;;;;;;;5.78;1.38;;;26.90;99.90;;;;;;5044606;28;20890;-80
2021/04/06 00:50:34;;;;;;;5.40;1.15;;;26.90;99.90;;;;;;5035982;28;20881;-79
2021/04/06 00:53:01;;;;;;;7.17;1.27;;;26.30;99.90;;;;;;5046585;28;20392;-80
2021/04/06 00:55:38;;;;;;;6.53;1.38;;;25.20;99.90;;;;;;5048687;28;20395;-80
2021/04/06 00:58:12;;;;;;;5.75;1.23;;;24.50;99.90;;;;;;5041797;28;20486;-80
2021/04/06 01:00:44;;;;;;;5.18;1.05;;;24.00;99.90;;;;;;5050759;28;20867;-80
2021/04/06 01:03:16;;;;;;;5.27;1.20;;;23.80;99.90;;;;;;5043155;28;20387;-80
2021/04/06 01:06:02;;;;;;;7.68;1.63;;;23.60;99.90;;;;;;5042839;28;20968;-81
2021/04/06 01:08:30;;;;;;;6.37;1.40;;;23.40;99.90;;;;;;5035684;28;20397;-80
2021/04/06 01:10:59;;;;;;;6.03;1.40;;;23.30;99.90;;;;;;5040642;28;20454;-81
2021/04/06 01:13:27;;;;;;;8.13;1.65;;;23.20;99.90;;;;;;5044154;28;20436;-80
2021/04/06 01:15:55;;;;;;;6.47;1.73;;;23.30;99.90;;;;;;5041623;28;20568;-81
2021/04/06 01:18:23;;;;;;;5.88;1.38;;;23.30;99.90;;;;;;5037672;28;20389;-81
2021/04/06 01:20:52;;;;;;;5.13;1.50;;;23.50;99.90;;;;;;5046051;28;20415;-79
2021/04/06 01:23:19;;;;;;;7.13;1.58;;;23.60;99.90;;;;;;5043325;28;20431;-79
2021/04/06 01:25:50;;;;;;;6.20;1.30;;;23.70;99.90;;;;;;5046726;28;20395;-80
2021/04/06 01:28:19;;;;;;;5.78;1.10;;;23.80;99.90;;;;;;5048062;28;20888;-79
2021/04/06 01:30:48;;;;;;;8.02;1.48;;;23.90;99.90;;;;;;5046972;28;20410;-79
2021/04/06 01:33:24;;;;;;;8.75;1.33;;;23.80;99.90;;;;;;5047273;28;20396;-79
2021/04/06 01:35:56;;;;;;;7.00;1.63;;;23.70;99.90;;;;;;5063772;28;20937;-79
2021/04/06 01:38:26;;;;;;;5.63;1.35;;;23.60;99.90;;;;;;5037992;28;20409;-80
2021/04/06 01:41:01;;;;;;;6.35;1.25;;;23.50;99.90;;;;;;5045727;28;20398;-79
2021/04/06 01:43:30;;;;;;;5.35;1.50;;;23.50;99.90;;;;;;5041114;28;20429;-79
2021/04/06 01:46:18;;;;;;;8.00;1.50;;;23.40;99.90;;;;;;5039718;28;21214;-78
2021/04/06 01:48:46;;;;;;;6.78;1.33;;;23.40;99.90;;;;;;5046324;28;20398;-78
2021/04/06 01:51:21;;;;;;;6.78;1.48;;;23.50;99.90;;;;;;5042713;28;20395;-79
2021/04/06 01:53:49;;;;;;;4.90;1.10;;;23.50;99.90;;;;;;5042321;28;20392;-79
2021/04/06 01:56:24;;;;;;;7.18;1.52;;;23.60;99.90;;;;;;5041484;28;20490;-79
2021/04/06 01:58:55;;;;;;;6.85;1.23;;;23.50;99.90;;;;;;5029592;28;20428;-80
2021/04/06 02:01:29;;;;;;;7.87;1.47;;;23.60;99.90;;;;;;5030916;28;20394;-79
2021/04/06 02:04:02;;;;;;;7.35;1.75;;;23.60;99.90;;;;;;5046253;28;20392;-79
2021/04/06 02:06:33;;;;;;;8.40;1.50;;;23.60;99.90;;;;;;5044476;28;20404;-79
2021/04/06 02:09:01;;;;;;;6.07;1.40;;;23.50;99.90;;;;;;5039617;28;20417;-79
2021/04/06 02:11:37;;;;;;;5.82;1.38;;;23.50;99.90;;;;;;5033824;28;20416;-79
2021/04/06 02:14:11;;;;;;;5.55;1.10;;;23.60;99.90;;;;;;5031947;28;20385;-79
2021/04/06 02:16:45;;;;;;;5.40;1.30;;;23.80;99.90;;;;;;5047595;28;20896;-79
2021/04/06 02:19:25;;;;;;;5.73;1.10;;;23.90;99.90;;;;;;5041964;28;20408;-80
2021/04/06 02:22:05;;;;;;;6.70;1.23;;;23.90;99.90;;;;;;5043834;28;20512;-79
2021/04/06 02:24:38;;;;;;;4.07;0.90;;;23.90;99.90;;;;;;5040835;28;20413;-80
2021/04/06 02:27:25;;;;;;;6.15;1.10;;;24.00;99.90;;;;;;5037494;28;20397;-79
2021/04/06 02:30:05;;;;;;;5.25;1.08;;;23.90;99.90;;;;;;5048569;28;20882;-79
2021/04/06 02:32:34;;;;;;;6.65;1.10;;;23.90;99.90;;;;;;5031597;28;20399;-80
2021/04/06 02:35:04;;;;;;;4.97;1.10;;;23.90;99.90;;;;;;5038219;28;20395;-81
2021/04/06 02:37:42;;;;;;;6.72;1.20;;;23.80;99.90;;;;;;5034902;28;20401;-81
2021/04/06 02:40:15;;;;;;;4.20;1.23;;;23.80;99.90;;;;;;5030954;28;20389;-81
2021/04/06 02:42:49;;;;;;;5.97;1.23;;;23.80;99.90;;;;;;5037417;28;20400;-81
2021/04/06 02:45:30;;;;;;;6.10;1.25;;;23.80;99.90;;;;;;5033906;28;20405;-79
2021/04/06 02:48:05;;;;;;;5.37;0.97;;;23.90;99.90;;;;;;5051656;28;21127;-79
2021/04/06 02:50:33;;;;;;;6.80;1.38;;;23.90;99.90;;;;;;5038671;28;20393;-79
2021/04/06 02:53:05;;;;;;;6.88;1.48;;;23.80;99.90;;;;;;5045634;28;20488;-78
2021/04/06 02:55:35;;;;;;;5.20;1.10;;;23.70;99.90;;;;;;5038436;28;20425;-80
2021/04/06 02:58:11;;;;;;;5.80;1.08;;;23.60;99.90;;;;;;5044202;28;20392;-80
2021/04/06 03:00:38;;;;;;;7.05;1.95;;;23.50;99.90;;;;;;5046946;28;20407;-80
2021/04/06 03:03:22;;;;;;;6.75;1.30;;;23.50;99.90;;;;;;5040312;28;20484;-80
2021/04/06 03:06:04;;;;;;;5.90;1.10;;;23.50;99.90;;;;;;5033851;28;20412;-80
2021/04/06 03:08:36;;;;;;;8.15;1.50;;;23.60;99.90;;;;;;5034777;28;20380;-80
2021/04/06 03:11:04;;;;;;;7.32;1.50;;;23.70;99.90;;;;;;5034544;28;20405;-78
2021/04/06 03:13:32;;;;;;;7.40;1.40;;;23.80;99.90;;;;;;5047454;28;20890;-78
2021/04/06 03:16:02;;;;;;;5.95;1.30;;;23.80;99.90;;;;;;5046834;28;20406;-79
2021/04/06 03:18:35;;;;;;;6.20;1.30;;;23.80;99.90;;;;;;5043240;28;20387;-78
2021/04/06 03:21:07;;;;;;;8.02;1.40;;;24.00;99.90;;;;;;5032942;28;20867;-79
2021/04/06 03:23:35;;;;;;;6.22;1.27;;;24.10;99.90;;;;;;5036831;28;20417;-79
2021/04/06 03:26:04;;;;;;;8.88;1.50;;;24.10;99.90;;;;;;5041801;28;20893;-79
2021/04/06 03:28:36;;;;;;;8.77;1.52;;;23.90;99.90;;;;;;5049017;28;20388;-79
2021/04/06 03:31:12;;;;;;;6.07;1.40;;;23.70;99.90;;;;;;5045153;28;20420;-79
2021/04/06 03:33:43;;;;;;;8.88;1.88;;;23.50;99.90;;;;;;5036919;28;20392;-80
2021/04/06 03:36:23;;;;;;;8.32;1.60;;;23.40;99.90;;;;;;5047327;28;20404;-80
2021/04/06 03:38:55;;;;;;;9.00;1.42;;;23.40;99.90;;;;;;5036129;28;20396;-80
2021/04/06 03:41:30;;;;;;;8.93;1.55;;;23.40;99.90;;;;;;5042360;28;20403;-82
2021/04/06 03:44:06;;;;;;;4.10;1.10;;;23.60;99.90;;;;;;5051979;28;21133;-81
2021/04/06 03:46:37;;;;;;;7.85;1.52;;;23.60;99.90;;;;;;5037496;28;20434;-81
2021/04/06 03:49:27;;;;;;;9.53;1.60;;;23.70;99.90;;;;;;5051207;28;20766;-80
2021/04/06 03:52:08;;;;;;;6.47;1.27;;;23.60;99.90;;;;;;5050469;28;20875;-80
2021/04/06 03:54:45;;;;;;;6.45;1.30;;;23.60;99.90;;;;;;5044647;28;20405;-81
2021/04/06 03:57:28;;;;;;;8.63;1.38;;;23.70;99.90;;;;;;5042549;28;20483;-80
2021/04/06 03:59:56;;;;;;;7.60;1.25;;;23.70;99.90;;;;;;5033117;28;20392;-79
2021/04/06 04:02:24;;;;;;;6.63;1.13;;;23.70;99.90;;;;;;5044950;28;20384;-80
2021/04/06 04:04:56;;;;;;;5.33;1.20;;;23.70;99.90;;;;;;5049562;28;20966;-79
2021/04/06 04:07:23;;;;;;;7.28;1.10;;;23.60;99.90;;;;;;5036765;28;20391;-80
2021/04/06 04:09:50;;;;;;;6.30;1.35;;;23.50;99.90;;;;;;5038573;28;20386;-80
2021/04/06 04:12:17;;;;;;;4.82;1.05;;;23.50;99.90;;;;;;5032091;28;20413;-80
2021/04/06 04:14:44;;;;;;;7.20;1.40;;;23.40;99.90;;;;;;5032247;28;20386;-79
2021/04/06 04:17:11;;;;;;;7.68;1.20;;;23.20;99.90;;;;;;5036355;28;20431;-80
2021/04/06 04:19:38;;;;;;;6.78;1.20;;;23.20;99.90;;;;;;5048633;28;20396;-81
2021/04/06 04:22:05;;;;;;;5.47;1.23;;;23.10;99.90;;;;;;5034338;28;20389;-82
2021/04/06 04:24:32;;;;;;;8.52;1.50;;;23.00;99.90;;;;;;5036693;28;20404;-81
2021/04/06 04:26:59;;;;;;;9.15;1.48;;;23.00;99.90;;;;;;5041744;28;20401;-82
2021/04/06 04:29:26;;;;;;;8.38;1.30;;;23.00;99.90;;;;;;5039915;28;20450;-80
2021/04/06 04:31:53;;;;;;;5.53;1.05;;;22.90;99.90;;;;;;5038333;28;20389;-80
2021/04/06 04:34:20;;;;;;;5.32;1.00;;;23.00;99.90;;;;;;5045246;28;20416;-83
2021/04/06 04:36:48;;;;;;;7.20;1.30;;;23.00;99.90;;;;;;5044134;28;20504;-83
2021/04/06 04:39:15;;;;;;;6.10;1.13;;;23.00;99.90;;;;;;5051223;28;20751;-82
2021/04/06 04:41:42;;;;;;;6.20;1.15;;;23.00;99.90;;;;;;5045643;28;20476;-82
2021/04/06 04:44:09;;;;;;;7.63;1.20;;;23.10;99.90;;;;;;5044152;28;20416;-82
2021/04/06 04:46:36;;;;;;;7.82;1.10;;;23.10;99.90;;;;;;5050176;28;20395;-82
2021/04/06 04:49:03;;;;;;;4.87;1.20;;;23.10;99.90;;;;;;5038396;28;20546;-83
2021/04/06 04:51:30;;;;;;;6.20;1.40;;;23.10;99.90;;;;;;5035265;28;20404;-81
2021/04/06 04:53:57;;;;;;;9.07;1.52;;;23.00;99.90;;;;;;5031754;28;22036;-82
2021/04/06 04:56:24;;;;;;;3.85;0.90;;;23.00;99.90;;;;;;5047716;28;20400;-81
2021/04/06 04:58:51;;;;;;;7.57;1.67;;;23.10;99.90;;;;;;5038116;28;20400;-82
2021/04/06 05:01:18;;;;;;;11.33;1.90;;;23.10;99.90;;;;;;5042926;28;20892;-82
2021/04/06 05:03:45;;;;;;;8.60;1.37;;;23.10;99.90;;;;;;5047009;28;20405;-81
2021/04/06 05:06:12;;;;;;;9.13;1.53;;;23.10;99.90;;;;;;5040722;28;20452;-82
2021/04/06 05:08:39;;;;;;;6.73;1.27;;;23.10;99.90;;;;;;5048183;28;20388;-81
2021/04/06 05:11:06;;;;;;;9.32;1.50;;;23.10;99.90;;;;;;5046913;28;20872;-82
2021/04/06 05:13:33;;;;;;;6.30;1.48;;;23.10;99.90;;;;;;5043803;28;20401;-81
2021/04/06 05:16:00;;;;;;;6.75;1.42;;;23.10;99.90;;;;;;5031666;28;20455;-83
2021/04/06 05:18:27;;;;;;;7.78;1.63;;;23.20;99.90;;;;;;5035993;28;20397;-82
2021/04/06 05:20:54;;;;;;;7.85;1.52;;;23.20;99.90;;;;;;5042051;28;20742;-82
2021/04/06 05:23:21;;;;;;;5.45;1.33;;;23.20;99.90;;;;;;5036513;28;20753;-82
2021/04/06 05:25:48;;;;;;;7.45;1.77;;;23.20;99.90;;;;;;5048171;28;20875;-81
2021/04/06 05:28:15;;;;;;;9.05;1.38;;;23.10;99.90;;;;;;5049748;28;20384;-82
2021/04/06 05:30:42;;;;;;;5.55;1.15;;;23.10;99.90;;;;;;5042670;28;20395;-83
2021/04/06 05:33:09;;;;;;;6.63;1.30;;;22.90;99.90;;;;;;5044020;28;20406;-82
2021/04/06 05:35:36;;;;;;;5.53;1.02;;;22.80;99.90;;;;;;5050573;28;20371;-83
2021/04/06 05:38:03;;;;;;;5.90;0.90;;;22.70;99.90;;;;;;5043750;28;20389;-83
2021/04/06 05:40:30;;;;;;;7.50;1.35;;;22.60;99.90;;;;;;5031186;28;20412;-83
2021/04/06 05:43:00;;;;;;;8.40;1.42;;;22.60;99.90;;;;;;5030358;28;20385;-81
2021/04/06 05:45:27;;;;;;;6.80;1.40;;;22.50;99.90;;;;;;5043502;28;20410;-82
2021/04/06 05:47:57;;;;;;;5.07;1.15;;;22.40;99.90;;;;;;5034139;28;20396;-81
2021/04/06 05:50:24;;;;;;;7.25;1.63;;;22.40;99.90;;;;;;5050001;28;20400;-82
2021/04/06 05:52:51;;;;;;;6.80;1.25;;;22.40;99.90;;;;;;5030929;28;20731;-82
2021/04/06 05:55:18;;;;;;;5.72;1.60;;;22.50;99.90;;;;;;5031016;28;20374;-82
2021/04/06 05:57:45;;;;;;;6.45;1.00;;;22.60;99.90;;;;;;5035333;28;20388;-82
2021/04/06 06:00:12;;;;;;;7.75;1.40;;;22.60;99.90;;;;;;5038912;28;20383;-82
2021/04/06 06:02:40;;;;;;;9.13;1.38;;;22.50;99.90;;;;;;5042340;28;20402;-82
2021/04/06 06:05:08;;;;;;;9.18;1.80;;;22.40;99.90;;;;;;5036861;28;20448;-83
2021/04/06 06:07:36;;;;;;;7.65;1.40;;;22.40;99.90;;;;;;5041267;28;20400;-82
2021/04/06 06:10:29;;;;;;;6.80;1.15;;;22.30;99.90;;;;;;5046705;28;20394;-82
2021/04/06 06:13:23;;;;;;;7.60;1.33;;;22.30;99.90;;;;;;5045811;28;20393;-83
2021/04/06 06:16:07;;;;;;;8.77;1.23;;;22.30;99.90;;;;;;5042482;28;20408;-84
2021/04/06 06:18:50;;;;;;;9.60;1.40;;;22.40;99.90;;;;;;5038577;28;20379;-82
2021/04/06 06:21:17;;;;;;;8.95;1.38;;;22.30;99.90;;;;;;5040734;28;20376;-80
2021/04/06 06:23:44;;;;;;;7.68;1.60;;;22.30;99.90;;;;;;5042173;28;20878;-79
2021/04/06 06:26:12;;;;;;;6.25;1.23;;;22.20;99.90;;;;;;5049800;28;20415;-82
2021/04/06 06:28:39;;;;;;;11.98;1.65;;;22.10;99.90;;;;;;5044485;28;20398;-81
2021/04/06 06:31:07;;;;;;;9.57;1.60;;;22.00;99.90;;;;;;5042371;28;22388;-81
2021/04/06 06:33:35;;;;;;;5.45;1.17;;;22.00;99.90;;;;;;5030604;28;20784;-82
2021/04/06 06:36:05;;;;;;;7.75;1.38;;;22.00;99.90;;;;;;5032441;28;20403;-81
2021/04/06 06:38:50;;;;;;;8.52;1.52;;;21.90;99.90;;;;;;5048527;28;20372;-81
2021/04/06 06:41:20;;;;;;;7.82;1.60;;;21.90;99.90;;;;;;5039036;28;20394;-82
2021/04/06 06:43:58;;;;;;;7.65;1.30;;;21.80;99.90;;;;;;5037614;28;21309;-78
2021/04/06 06:46:31;;;;;;;7.25;1.50;;;21.70;99.90;;;;;;5048011;28;20392;-79
2021/04/06 06:49:03;;;;;;;7.93;1.63;;;21.70;99.90;;;;;;5047545;28;20532;-79
2021/04/06 06:51:33;;;;;;;10.60;1.73;;;21.60;99.90;;;;;;5033343;28;20391;-82
2021/04/06 06:54:00;;;;;;;7.25;1.10;;;21.60;99.90;;;;;;5048655;28;20391;-81
2021/04/06 06:56:37;;;;;;;9.70;1.52;;;21.50;99.90;;;;;;5046962;28;20388;-81
2021/04/06 06:59:05;;;;;;;6.10;1.05;;;21.50;99.90;;;;;;5048539;28;20395;-78
2021/04/06 07:01:34;;;;;;;8.82;1.75;;;21.50;99.90;;;;;;5043075;28;20397;-81
2021/04/06 07:04:12;;;;;;;9.73;1.63;;;21.40;99.90;;;;;;5028691;28;20405;-81
2021/04/06 07:06:41;;;;;;;6.88;1.40;;;21.40;99.90;;;;;;5031401;28;20897;-83
2021/04/06 07:09:25;;;;;;;9.00;1.33;;;21.30;99.90;;;;;;5044878;28;20900;-79
2021/04/06 07:12:00;;;;;;;8.73;1.40;;;21.30;99.90;;;;;;5029488;28;20404;-79
2021/04/06 07:14:28;;;;;;;7.30;1.30;;;21.20;99.90;;;;;;5054117;28;20391;-79
2021/04/06 07:17:00;;;;;;;8.75;1.55;;;21.20;99.90;;;;;;5047829;28;20395;-79
2021/04/06 07:19:30;;;;;;;10.27;1.70;;;21.20;99.90;;;;;;5042833;28;20818;-79
2021/04/06 07:22:00;;;;;;;5.47;1.80;;;21.20;99.90;;;;;;5045773;28;20398;-80
2021/04/06 07:24:34;;;;;;;7.78;1.80;;;21.10;99.90;;;;;;5044915;28;20415;-80
2021/04/06 07:27:11;;;;;;;9.20;2.03;;;21.10;99.90;;;;;;5047588;28;20410;-79
2021/04/06 07:29:39;;;;;;;12.40;3.73;;;21.00;99.90;;;;;;5037815;28;20404;-80
2021/04/06 07:32:10;;;;;;;10.00;2.25;;;21.00;99.90;;;;;;5037781;28;20751;-82
2021/04/06 07:34:40;;;;;;;9.48;2.30;;;21.00;99.90;;;;;;5028057;28;20380;-80
2021/04/06 07:37:07;;;;;;;9.50;1.42;;;21.00;99.90;;;;;;5033711;28;20380;-79
2021/04/06 07:39:36;;;;;;;10.00;1.33;;;21.00;99.90;;;;;;5047377;28;20429;-80
2021/04/06 07:42:04;;;;;;;7.35;1.55;;;21.00;99.90;;;;;;5044979;28;20411;-80
2021/04/06 07:44:36;;;;;;;11.18;1.83;;;20.90;99.90;;;;;;5048267;28;20400;-81
2021/04/06 07:47:03;;;;;;;11.85;2.08;;;20.90;99.90;;;;;;5044374;28;20491;-80
2021/04/06 07:49:31;;;;;;;6.57;1.40;;;20.90;99.90;;;;;;5038973;28;20414;-80
2021/04/06 07:52:00;;;;;;;7.80;1.45;;;20.80;99.90;;;;;;5032338;28;20871;-80
2021/04/06 07:54:33;;;;;;;9.15;1.70;;;20.70;99.90;;;;;;5047581;28;20390;-80
2021/04/06 07:57:05;;;;;;;5.97;1.23;;;20.70;99.90;;;;;;5047869;28;20750;-80
2021/04/06 07:59:35;;;;;;;8.90;1.67;;;20.70;99.90;;;;;;5030472;28;20394;-80
2021/04/06 08:02:02;;;;;;;8.02;1.83;;;20.60;99.90;;;;;;5032935;28;20429;-81
2021/04/06 08:04:41;;;;;;;12.55;2.22;;;20.60;99.90;;;;;;5029128;28;20406;-81
2021/04/06 08:07:35;;;;;;;5.82;1.20;;;20.60;99.90;;;;;;5053967;28;20384;-80
2021/04/06 08:10:17;;;;;;;8.40;1.42;;;20.50;99.90;;;;;;5026207;28;20392;-80
2021/04/06 08:12:46;;;;;;;10.63;1.67;;;20.50;99.90;;;;;;5050797;28;20462;-81
2021/04/06 08:15:19;;;;;;;6.70;1.23;;;20.50;99.90;;;;;;5049067;28;20489;-81
2021/04/06 08:17:54;;;;;;;10.95;1.67;;;20.50;99.90;;;;;;5034196;28;20393;-80
2021/04/06 08:20:41;;;;;;;8.68;1.48;;;20.50;99.90;;;;;;5050943;28;20395;-81
2021/04/06 08:23:34;;;;;;;8.82;1.42;;;20.40;99.90;;;;;;5047085;28;20478;-80
2021/04/06 08:26:01;;;;;;;7.82;1.40;;;20.40;99.90;;;;;;5035893;28;20407;-80
2021/04/06 08:28:38;;;;;;;8.95;1.33;;;20.40;99.90;;;;;;5050342;28;20395;-80
2021/04/06 08:31:32;;;;;;;8.70;1.58;;;20.30;99.90;;;;;;5047771;28;20376;-80
2021/04/06 08:34:26;;;;;;;9.00;1.53;;;20.30;99.90;;;;;;5030298;28;20401;-80
2021/04/06 08:37:13;;;;;;;12.70;2.17;;;20.20;99.90;;;;;;5038643;28;20477;-80
2021/04/06 08:39:40;;;;;;;8.52;1.50;;;20.20;99.90;;;;;;5050819;28;20419;-80
2021/04/06 08:42:11;;;;;;;7.20;1.30;;;20.20;99.90;;;;;;5047507;28;20925;-80
2021/04/06 08:44:38;;;;;;;8.48;1.63;;;20.10;99.90;;;;;;5049228;28;20545;-79
2021/04/06 08:47:06;;;;;;;7.50;1.60;;;20.10;99.90;;;;;;5051055;28;20423;-80
2021/04/06 08:49:41;;;;;;;10.50;1.70;;;20.10;99.90;;;;;;5049763;28;20387;-81
2021/04/06 08:52:13;;;;;;;10.65;1.70;;;20.00;99.90;;;;;;5043695;28;20401;-80
2021/04/06 08:54:40;;;;;;;11.32;2.10;;;20.00;99.90;;;;;;5035628;28;20412;-80
2021/04/06 08:57:09;;;;;;;7.07;1.40;;;20.00;99.90;;;;;;5032227;28;20566;-81
2021/04/06 08:59:39;;;;;;;9.18;1.58;;;20.00;99.90;;;;;;5042197;28;20987;-81
2021/04/06 09:02:10;;;;;;;8.73;1.70;;;20.00;99.90;;;;;;5046798;28;20474;-80
2021/04/06 09:04:42;;;;;;;9.95;1.83;;;20.00;99.90;;;;;;5046692;28;20913;-80
2021/04/06 09:07:23;;;;;;;5.22;1.40;;;20.00;99.90;;;;;;5043450;28;20403;-82
2021/04/06 09:10:01;;;;;;;7.17;1.90;;;19.90;99.90;;;;;;5045684;28;20493;-80
2021/04/06 09:12:28;;;;;;;12.05;2.25;;;19.90;99.90;;;;;;5048064;28;21444;-81
2021/04/06 09:14:56;;;;;;;10.07;1.83;;;19.90;99.90;;;;;;5050363;28;20387;-80
2021/04/06 09:17:33;;;;;;;8.18;1.70;;;19.80;99.90;;;;;;5038994;28;20416;-80
2021/04/06 09:20:07;;;;;;;9.85;1.90;;;19.80;99.90;;;;;;5041807;28;20437;-82
2021/04/06 09:22:34;;;;;;;9.15;1.88;;;19.80;99.90;;;;;;5034957;28;20405;-82
2021/04/06 09:25:17;;;;;;;10.23;1.83;;;19.70;99.90;;;;;;5044334;28;20416;-81
2021/04/06 09:27:53;;;;;;;9.98;1.65;;;19.70;99.90;;;;;;5050034;28;20438;-81
2021/04/06 09:30:31;;;;;;;12.77;2.20;;;19.70;99.90;;;;;;5049649;28;20777;-82
2021/04/06 09:33:05;;;;;;;11.88;2.00;;;19.70;99.90;;;;;;5040719;28;20918;-81
2021/04/06 09:35:33;;;;;;;15.82;2.10;;;19.60;99.90;;;;;;5031188;28;20464;-81
2021/04/06 09:38:00;;;;;;;10.82;1.80;;;19.60;99.90;;;;;;5045837;28;20799;-80
2021/04/06 09:40:37;;;;;;;10.93;2.13;;;19.60;99.90;;;;;;5046683;28;21167;-80
2021/04/06 09:43:05;;;;;;;9.30;1.65;;;19.60;99.90;;;;;;5042115;28;20401;-82
2021/04/06 09:45:32;;;;;;;10.50;2.10;;;19.60;99.90;;;;;;5037590;28;20403;-81
2021/04/06 09:48:00;;;;;;;14.77;2.15;;;19.60;99.90;;;;;;5048805;28;20917;-81
2021/04/06 09:50:27;;;;;;;7.13;1.60;;;19.50;99.90;;;;;;5046976;28;20698;-81
2021/04/06 09:52:58;;;;;;;8.55;1.70;;;19.50;99.90;;;;;;5045103;28;22026;-80
2021/04/06 09:55:29;;;;;;;8.68;1.80;;;19.50;99.90;;;;;;5041373;28;20486;-80
2021/04/06 09:58:02;;;;;;;9.73;1.60;;;19.40;99.90;;;;;;5039150;28;20870;-81
2021/04/06 10:00:35;;;;;;;13.07;1.75;;;19.40;99.90;;;;;;5042831;28;20398;-80
2021/04/06 10:03:04;;;;;;;11.20;1.70;;;19.40;99.90;;;;;;5045778;28;20395;-81
2021/04/06 10:05:31;;;;;;;9.02;1.85;;;19.40;99.90;;;;;;5049765;28;20803;-80
2021/04/06 10:07:58;;;;;;;9.68;1.63;;;19.50;99.90;;;;;;5048652;28;20478;-80
2021/04/06 10:10:28;;;;;;;11.18;1.77;;;19.50;99.90;;;;;;5038655;28;20726;-80
2021/04/06 10:12:57;;;;;;;12.00;2.25;;;19.50;99.90;;;;;;5046063;28;20391;-79
2021/04/06 10:15:30;;;;;;;9.68;1.48;;;19.50;99.90;;;;;;5036586;28;20393;-80
2021/04/06 10:18:06;;;;;;;8.77;1.50;;;19.50;99.90;;;;;;5029889;28;20382;-81
2021/04/06 10:20:44;;;;;;;10.32;1.67;;;19.50;99.90;;;;;;5029834;28;20855;-81
2021/04/06 10:23:13;;;;;;;6.82;1.38;;;19.50;99.90;;;;;;5037897;28;20400;-80
2021/04/06 10:25:44;;;;;;;8.07;1.63;;;19.50;99.90;;;;;;5039661;28;20898;-80
2021/04/06 10:28:31;;;;;;;5.15;1.48;;;19.50;99.90;;;;;;5042143;28;20887;-80
2021/04/06 10:31:04;;;;;;;9.48;1.30;;;19.40;99.90;;;;;;5032490;28;21186;-81
2021/04/06 10:33:38;;;;;;;10.57;1.77;;;19.40;99.90;;;;;;5035036;28;20386;-80
2021/04/06 10:36:16;;;;;;;9.10;1.58;;;19.40;99.90;;;;;;5033414;28;20497;-80
2021/04/06 10:38:43;;;;;;;8.43;1.40;;;19.40;99.90;;;;;;5044694;28;20395;-80
2021/04/06 10:41:16;;;;;;;7.57;1.70;;;19.30;99.90;;;;;;5045311;28;20482;-81
2021/04/06 10:43:52;;;;;;;8.00;1.42;;;19.30;99.90;;;;;;5041439;28;20913;-81
2021/04/06 10:46:24;;;;;;;7.25;1.83;;;19.30;99.90;;;;;;5031523;28;20476;-80
2021/04/06 10:49:13;;;;;;;8.95;1.52;;;19.20;99.90;;;;;;5046120;28;20462;-80
2021/04/06 10:51:49;;;;;;;7.97;1.60;;;19.10;99.90;;;;;;5034694;28;20502;-80
2021/04/06 10:54:16;;;;;;;8.73;1.20;;;19.10;99.90;;;;;;5046222;28;20375;-80
2021/04/06 10:56:47;;;;;;;11.07;1.70;;;19.10;99.90;;;;;;5045745;28;20401;-80
2021/04/06 10:59:27;;;;;;;11.20;1.80;;;19.10;99.90;;;;;;5042283;28;20404;-80
2021/04/06 11:01:54;;;;;;;10.48;1.52;;;19.10;99.90;;;;;;5035295;28;20480;-81
2021/04/06 11:04:27;;;;;;;9.60;1.70;;;19.00;99.90;;;;;;5034674;28;20422;-81
2021/04/06 11:07:01;;;;;;;11.43;1.27;;;19.00;99.90;;;;;;5030626;28;20466;-80
2021/04/06 11:09:47;;;;;;;11.13;1.73;;;18.90;99.90;;;;;;5026071;28;20382;-81
2021/04/06 11:12:16;;;;;;;7.45;1.42;;;18.90;99.90;;;;;;5026212;28;20500;-81
2021/04/06 11:14:45;;;;;;;7.68;1.45;;;18.80;99.90;;;;;;5035245;28;20908;-80
2021/04/06 11:17:14;;;;;;;8.25;1.60;;;18.80;99.90;;;;;;5044120;28;20556;-80
2021/04/06 11:19:43;;;;;;;6.40;1.83;;;18.70;99.90;;;;;;5040412;28;20388;-80
2021/04/06 11:22:18;;;;;;;6.63;1.48;;;18.70;99.90;;;;;;5041216;28;20832;-82
2021/04/06 11:24:47;;;;;;;5.55;1.58;;;18.60;99.90;;;;;;5045492;28;21180;-81
2021/04/06 11:27:17;;;;;;;7.40;1.70;;;18.60;99.90;;;;;;5030174;28;20393;-81
2021/04/06 11:29:45;;;;;;;10.90;1.52;;;18.60;99.90;;;;;;5039652;28;20438;-81
2021/04/06 11:32:15;;;;;;;8.73;1.50;;;18.60;99.90;;;;;;5039805;28;20449;-80
2021/04/06 11:34:43;;;;;;;8.55;1.75;;;18.70;99.90;;;;;;5030323;28;20448;-81
2021/04/06 11:37:14;;;;;;;9.05;1.67;;;18.70;99.90;;;;;;5040721;28;20371;-81
2021/04/06 11:39:44;;;;;;;9.40;1.90;;;18.80;99.90;;;;;;5040959;28;20942;-80
2021/04/06 11:42:15;;;;;;;7.25;1.48;;;18.80;99.90;;;;;;5037930;28;20395;-80
2021/04/06 11:44:42;;;;;;;7.68;1.65;;;18.90;99.90;;;;;;5027697;28;20445;-80
2021/04/06 11:47:10;;;;;;;8.35;1.83;;;18.90;99.90;;;;;;5052910;28;20464;-81
2021/04/06 11:49:37;;;;;;;12.45;1.73;;;18.80;99.90;;;;;;5049558;28;20406;-80
2021/04/06 11:52:05;;;;;;;11.02;1.70;;;18.80;99.90;;;;;;5044387;28;20393;-80
2021/04/06 11:54:32;;;;;;;10.48;2.03;;;18.80;99.90;;;;;;5040119;28;20446;-80
2021/04/06 11:56:59;;;;;;;11.03;1.93;;;18.70;99.90;;;;;;5042312;28;20403;-80
2021/04/06 11:59:29;;;;;;;9.05;1.83;;;18.70;99.90;;;;;;5044799;28;20397;-80
2021/04/06 12:01:56;;;;;;;9.90;1.70;;;18.70;99.90;;;;;;5047092;28;20383;-80
2021/04/06 12:04:23;;;;;;;7.93;1.52;;;18.70;99.90;;;;;;5048435;28;20411;-80
2021/04/06 12:06:50;;;;;;;8.73;1.85;;;18.60;99.90;;;;;;5044927;28;20454;-78
2021/04/06 12:09:17;;;;;;;10.00;1.80;;;18.60;99.90;;;;;;5036289;28;20470;-79
2021/04/06 12:11:44;;;;;;;8.70;1.83;;;18.60;99.90;;;;;;5047110;28;20380;-78
2021/04/06 12:14:11;;;;;;;7.97;1.90;;;18.60;99.90;;;;;;5049804;28;20419;-78
2021/04/06 12:16:38;;;;;;;11.00;1.73;;;18.60;99.90;;;;;;5050908;28;20387;-79
2021/04/06 12:19:05;;;;;;;12.98;2.35;;;18.60;99.90;;;;;;5049354;28;20406;-79
2021/04/06 12:21:32;;;;;;;8.38;1.90;;;18.60;99.90;;;;;;5050513;28;20433;-79
2021/04/06 12:23:59;;;;;;;7.07;1.80;;;18.50;99.90;;;;;;5051082;28;21443;-79
2021/04/06 12:26:26;;;;;;;9.63;1.67;;;18.50;99.90;;;;;;5051772;28;20388;-79
2021/04/06 12:28:53;;;;;;;10.02;2.15;;;18.40;99.90;;;;;;5050593;28;20367;-79
2021/04/06 12:31:19;;;;;;;8.00;2.05;;;18.40;99.90;;;;;;5040433;28;20400;-79
2021/04/06 12:33:47;;;;;;;8.88;1.75;;;18.40;99.90;;;;;;5037109;28;20400;-79
2021/04/06 12:36:14;;;;;;;11.13;1.70;;;18.40;99.90;;;;;;5039105;28;20378;-79
2021/04/06 12:38:41;;;;;;;10.20;1.65;;;18.30;99.90;;;;;;5043886;28;20401;-79
2021/04/06 12:41:09;;;;;;;10.27;1.73;;;18.30;99.90;;;;;;5041884;28;20378;-79
2021/04/06 12:43:36;;;;;;;8.88;1.50;;;18.30;99.90;;;;;;5048115;28;20407;-80
2021/04/06 12:46:03;;;;;;;6.75;1.55;;;18.30;99.90;;;;;;5040775;28;20402;-80
2021/04/06 12:48:30;;;;;;;8.82;1.70;;;18.30;99.90;;;;;;5043419;28;20417;-80
2021/04/06 12:50:57;;;;;;;9.13;2.00;;;18.30;99.90;;;;;;5042533;28;20395;-80
2021/04/06 12:53:24;;;;;;;9.98;1.60;;;18.30;99.90;;;;;;5039569;28;20397;-80
2021/04/06 12:55:52;;;;;;;9.68;1.60;;;18.30;99.90;;;;;;5041286;28;20386;-79
2021/04/06 12:58:18;;;;;;;14.02;1.88;;;18.30;99.90;;;;;;5034652;28;20423;-80
2021/04/06 13:00:45;;;;;;;8.80;1.35;;;18.30;99.90;;;;;;5035771;28;20834;-80
2021/04/06 13:03:14;;;;;;;8.68;1.50;;;18.30;99.90;;;;;;5039609;28;20402;-80
2021/04/06 13:05:41;;;;;;;8.23;1.63;;;18.30;99.90;;;;;;5034123;28;20528;-81